createdAt,value
2016-08-11T00:00:52.959Z,0
2016-08-11T00:01:51.569Z,0
2016-08-11T00:02:52.304Z,0
2016-08-11T00:03:51.609Z,0
2016-08-11T00:04:51.634Z,0
2016-08-11T00:05:52.367Z,0
2016-08-11T00:06:51.679Z,0
2016-08-11T00:07:51.702Z,0
2016-08-11T00:08:51.724Z,0
2016-08-11T00:09:51.750Z,0
2016-08-11T00:10:51.765Z,0
2016-08-11T00:11:52.533Z,0
2016-08-11T00:12:52.551Z,0
2016-08-11T00:13:51.835Z,0
2016-08-11T00:14:52.571Z,0
2016-08-11T00:15:51.896Z,0
2016-08-11T00:16:52.618Z,0
2016-08-11T00:17:52.646Z,0
2016-08-11T00:18:53.375Z,0
2016-08-11T00:19:52.000Z,0
2016-08-11T00:20:52.004Z,0
2016-08-11T00:21:52.037Z,0
2016-08-11T00:22:52.753Z,0
2016-08-11T00:23:52.072Z,0
2016-08-11T00:24:52.093Z,0
2016-08-11T00:25:52.121Z,0
2016-08-11T00:26:52.140Z,0
2016-08-11T00:27:52.159Z,0
2016-08-11T00:28:52.197Z,0
2016-08-11T00:29:52.208Z,0
2016-08-11T00:30:52.245Z,0
2016-08-11T00:31:52.965Z,0
2016-08-11T00:32:52.984Z,0
2016-08-11T00:33:52.306Z,0
2016-08-11T00:34:53.048Z,0
2016-08-11T00:35:53.066Z,0
2016-08-11T00:36:52.370Z,0
2016-08-11T00:37:52.390Z,0
2016-08-11T00:38:52.414Z,0
2016-08-11T00:39:52.447Z,0
2016-08-11T00:40:52.461Z,0
2016-08-11T00:41:52.489Z,0
2016-08-11T00:42:52.530Z,0
2016-08-11T00:43:52.538Z,0
2016-08-11T00:44:52.564Z,0
2016-08-11T00:45:53.293Z,0
2016-08-11T00:46:52.604Z,0
2016-08-11T00:47:52.623Z,0
2016-08-11T00:48:53.360Z,0
2016-08-11T00:49:52.722Z,0
2016-08-11T00:50:53.408Z,0
2016-08-11T00:51:52.716Z,0
2016-08-11T00:52:52.740Z,0
2016-08-11T00:53:52.763Z,0
2016-08-11T00:54:52.786Z,0
2016-08-11T00:55:53.516Z,0
2016-08-11T00:56:52.832Z,0
2016-08-11T00:57:52.857Z,0
2016-08-11T00:58:52.882Z,0
2016-08-11T00:59:52.915Z,0
2016-08-11T01:00:54.351Z,0
2016-08-11T01:01:52.950Z,0
2016-08-11T01:02:54.401Z,0
2016-08-11T01:03:53.007Z,0
2016-08-11T01:04:53.022Z,0
2016-08-11T01:05:53.761Z,0
2016-08-11T01:06:55.196Z,0
2016-08-11T01:07:53.102Z,0
2016-08-11T01:08:53.108Z,0
2016-08-11T01:09:53.137Z,0
2016-08-11T01:10:53.162Z,0
2016-08-11T01:11:53.185Z,0
2016-08-11T01:12:53.203Z,0
2016-08-11T01:13:53.241Z,0
2016-08-11T01:14:53.255Z,0
2016-08-11T01:15:53.271Z,0
2016-08-11T01:16:53.300Z,0
2016-08-11T01:17:53.321Z,0
2016-08-11T01:18:54.050Z,0
2016-08-11T01:19:53.365Z,0
2016-08-11T01:20:53.391Z,0
2016-08-11T01:21:53.416Z,0
2016-08-11T01:22:53.431Z,0
2016-08-11T01:23:53.482Z,0
2016-08-11T01:24:54.191Z,0
2016-08-11T01:25:53.507Z,0
2016-08-11T01:26:53.530Z,0
2016-08-11T01:27:53.556Z,0
2016-08-11T01:28:54.999Z,0
2016-08-11T01:29:54.336Z,0
2016-08-11T01:30:53.628Z,0
2016-08-11T01:31:53.643Z,0
2016-08-11T01:32:53.665Z,0
2016-08-11T01:33:53.690Z,0
2016-08-11T01:34:53.718Z,0
2016-08-11T01:35:54.446Z,0
2016-08-11T01:36:53.758Z,0
2016-08-11T01:37:53.779Z,0
2016-08-11T01:38:54.515Z,0
2016-08-11T01:39:53.854Z,0
2016-08-11T01:41:53.872Z,0
2016-08-11T01:42:53.899Z,0
2016-08-11T01:43:54.628Z,0
2016-08-11T01:44:53.956Z,0
2016-08-11T01:45:54.699Z,0
2016-08-11T01:46:54.702Z,0
2016-08-11T01:47:54.727Z,0
2016-08-11T01:48:54.035Z,0
2016-08-11T01:49:54.106Z,0
2016-08-11T01:50:54.077Z,0
2016-08-11T01:51:54.107Z,0
2016-08-11T01:52:54.127Z,0
2016-08-11T01:53:54.147Z,0
2016-08-11T01:54:54.910Z,0
2016-08-11T01:55:54.906Z,0
2016-08-11T01:56:54.937Z,0
2016-08-11T01:57:54.246Z,0
2016-08-11T01:58:54.266Z,0
2016-08-11T01:59:54.284Z,0
2016-08-11T02:00:54.342Z,0
2016-08-11T02:01:54.343Z,0
2016-08-11T02:02:54.352Z,0
2016-08-11T02:03:55.104Z,0
2016-08-11T02:04:55.113Z,0
2016-08-11T02:05:55.135Z,0
2016-08-11T02:06:54.443Z,0
2016-08-11T02:07:54.469Z,0
2016-08-11T02:08:54.498Z,0
2016-08-11T02:09:54.520Z,0
2016-08-11T02:10:54.535Z,0
2016-08-11T02:11:55.268Z,0
2016-08-11T02:12:54.582Z,0
2016-08-11T02:13:55.316Z,0
2016-08-11T02:14:54.633Z,0
2016-08-11T02:15:54.677Z,0
2016-08-11T02:16:54.682Z,0
2016-08-11T02:17:55.414Z,0
2016-08-11T02:18:54.730Z,0
2016-08-11T02:19:56.165Z,0
2016-08-11T02:20:54.763Z,0
2016-08-11T02:21:54.798Z,0
2016-08-11T02:22:54.811Z,0
2016-08-11T02:23:55.551Z,0
2016-08-11T02:24:54.853Z,0
2016-08-11T02:25:55.589Z,0
2016-08-11T02:26:54.901Z,0
2016-08-11T02:27:55.654Z,0
2016-08-11T02:28:54.949Z,0
2016-08-11T02:29:55.679Z,0
2016-08-11T02:30:54.994Z,0
2016-08-11T02:31:55.014Z,0
2016-08-11T02:32:55.788Z,0
2016-08-11T02:33:55.066Z,0
2016-08-11T02:34:55.091Z,0
2016-08-11T02:35:55.107Z,0
2016-08-11T02:36:55.129Z,0
2016-08-11T02:37:55.156Z,0
2016-08-11T02:38:55.882Z,0
2016-08-11T02:39:56.625Z,0
2016-08-11T02:40:55.937Z,0
2016-08-11T02:41:55.242Z,0
2016-08-11T02:42:55.985Z,0
2016-08-11T02:43:55.290Z,0
2016-08-11T02:44:56.023Z,0
2016-08-11T02:45:55.336Z,0
2016-08-11T02:46:55.364Z,0
2016-08-11T02:47:55.395Z,0
2016-08-11T02:48:55.411Z,0
2016-08-11T02:49:55.496Z,0
2016-08-11T02:50:55.452Z,0
2016-08-11T02:51:55.484Z,0
2016-08-11T02:52:55.498Z,0
2016-08-11T02:53:55.516Z,0
2016-08-11T02:54:55.552Z,0
2016-08-11T02:55:56.287Z,0
2016-08-11T02:56:55.586Z,0
2016-08-11T02:57:55.610Z,0
2016-08-11T02:59:55.658Z,0
2016-08-11T03:00:55.674Z,0
2016-08-11T03:01:55.703Z,0
2016-08-11T03:02:55.722Z,0
2016-08-11T03:03:55.744Z,0
2016-08-11T03:04:55.784Z,0
2016-08-11T03:05:56.506Z,0
2016-08-11T03:06:55.815Z,0
2016-08-11T03:07:57.263Z,0
2016-08-11T03:08:56.562Z,0
2016-08-11T03:09:55.888Z,0
2016-08-11T03:10:55.907Z,0
2016-08-11T03:11:57.347Z,0
2016-08-11T03:12:56.673Z,0
2016-08-11T03:14:56.705Z,0
2016-08-11T03:16:11.619Z,0
2016-08-11T03:16:56.036Z,0
2016-08-11T03:17:56.781Z,0
2016-08-11T03:18:56.800Z,0
2016-08-11T03:19:56.125Z,0
2016-08-11T03:20:56.148Z,0
2016-08-11T03:21:56.157Z,0
2016-08-11T03:22:56.174Z,0
2016-08-11T03:23:56.195Z,0
2016-08-11T03:24:56.220Z,0
2016-08-11T03:25:56.980Z,0
2016-08-11T03:26:57.002Z,0
2016-08-11T03:27:56.283Z,0
2016-08-11T03:29:56.337Z,0
2016-08-11T03:30:56.360Z,0
2016-08-11T03:31:56.380Z,0
2016-08-11T03:32:57.113Z,0
2016-08-11T03:33:57.840Z,0
2016-08-11T03:34:56.446Z,0
2016-08-11T03:35:56.468Z,0
2016-08-11T03:36:56.490Z,0
2016-08-11T03:37:56.513Z,0
2016-08-11T03:38:56.539Z,0
2016-08-11T03:39:56.561Z,0
2016-08-11T03:40:56.601Z,0
2016-08-11T03:41:56.615Z,0
2016-08-11T03:42:56.637Z,0
2016-08-11T03:44:57.392Z,0
2016-08-11T03:45:57.402Z,0
2016-08-11T03:46:57.429Z,0
2016-08-11T03:47:56.738Z,0
2016-08-11T03:48:56.769Z,0
2016-08-11T03:49:56.791Z,0
2016-08-11T03:50:57.518Z,0
2016-08-11T03:51:58.249Z,0
2016-08-11T03:52:56.852Z,0
2016-08-11T03:53:56.879Z,0
2016-08-11T03:54:57.613Z,0
2016-08-11T03:55:56.923Z,0
2016-08-11T03:56:56.945Z,0
2016-08-11T03:57:57.716Z,0
2016-08-11T03:59:57.019Z,0
2016-08-11T04:00:57.035Z,0
2016-08-11T04:01:57.056Z,0
2016-08-11T04:02:57.807Z,0
2016-08-11T04:03:57.817Z,0
2016-08-11T04:04:57.126Z,0
2016-08-11T04:05:57.151Z,0
2016-08-11T04:06:57.894Z,0
2016-08-11T04:07:57.198Z,0
2016-08-11T04:08:57.216Z,0
2016-08-11T04:09:57.238Z,0
2016-08-11T04:10:58.695Z,0
2016-08-11T04:11:57.993Z,4
2016-08-11T04:12:57.307Z,4
2016-08-11T04:13:57.382Z,0
2016-08-11T04:14:57.361Z,0
2016-08-11T04:15:57.376Z,0
2016-08-11T04:16:57.394Z,0
2016-08-11T04:17:58.125Z,0
2016-08-11T04:18:57.437Z,0
2016-08-11T04:19:57.502Z,0
2016-08-11T04:20:58.215Z,4
2016-08-11T04:21:57.512Z,0
2016-08-11T04:22:57.534Z,4
2016-08-11T04:23:57.560Z,0
2016-08-11T04:24:58.297Z,4
2016-08-11T04:25:57.597Z,0
2016-08-11T04:26:57.621Z,4
2016-08-11T04:27:58.354Z,0
2016-08-11T04:29:57.684Z,0
2016-08-11T04:30:57.710Z,4
2016-08-11T04:31:57.738Z,4
2016-08-11T04:32:57.763Z,4
2016-08-11T04:33:58.483Z,4
2016-08-11T04:34:57.815Z,4
2016-08-11T04:35:58.556Z,0
2016-08-11T04:36:57.843Z,4
2016-08-11T04:37:57.874Z,4
2016-08-11T04:38:58.604Z,8
2016-08-11T04:39:57.926Z,4
2016-08-11T04:40:57.930Z,4
2016-08-11T04:41:57.957Z,8
2016-08-11T04:42:57.980Z,8
2016-08-11T04:43:58.056Z,4
2016-08-11T04:44:58.022Z,4
2016-08-11T04:45:58.047Z,4
2016-08-11T04:46:58.779Z,4
2016-08-11T04:47:58.091Z,4
2016-08-11T04:48:58.822Z,4
2016-08-11T04:49:58.186Z,4
2016-08-11T04:50:58.866Z,4
2016-08-11T04:51:58.210Z,4
2016-08-11T04:52:58.211Z,4
2016-08-11T04:53:58.233Z,4
2016-08-11T04:54:58.241Z,4
2016-08-11T04:55:58.267Z,4
2016-08-11T04:56:58.293Z,4
2016-08-11T04:57:58.316Z,4
2016-08-11T04:59:58.360Z,4
2016-08-11T05:00:58.382Z,4
2016-08-11T05:01:59.131Z,4
2016-08-11T05:02:58.431Z,4
2016-08-11T05:03:58.451Z,4
2016-08-11T05:04:58.474Z,8
2016-08-11T05:05:59.216Z,4
2016-08-11T05:06:58.514Z,4
2016-08-11T05:07:58.553Z,8
2016-08-11T05:08:58.575Z,4
2016-08-11T05:09:59.295Z,8
2016-08-11T05:10:58.605Z,4
2016-08-11T05:11:58.635Z,4
2016-08-11T05:12:58.653Z,8
2016-08-11T05:14:58.705Z,8
2016-08-11T05:15:58.721Z,4
2016-08-11T05:16:58.747Z,8
2016-08-11T05:17:59.478Z,8
2016-08-11T05:18:59.498Z,8
2016-08-11T05:19:58.807Z,8
2016-08-11T05:20:59.546Z,8
2016-08-11T05:21:58.853Z,8
2016-08-11T05:22:58.872Z,8
2016-08-11T05:23:58.896Z,12
2016-08-11T05:24:58.921Z,12
2016-08-11T05:25:58.948Z,12
2016-08-11T05:26:58.964Z,12
2016-08-11T05:27:58.986Z,12
2016-08-11T05:29:59.041Z,12
2016-08-11T05:30:59.069Z,12
2016-08-11T05:31:59.073Z,12
2016-08-11T05:32:59.094Z,12
2016-08-11T05:33:59.120Z,12
2016-08-11T05:34:59.856Z,12
2016-08-11T05:35:59.163Z,16
2016-08-11T05:36:59.186Z,16
2016-08-11T05:37:59.211Z,16
2016-08-11T05:38:59.245Z,16
2016-08-11T05:39:59.288Z,20
2016-08-11T05:40:59.276Z,20
2016-08-11T05:41:59.302Z,20
2016-08-11T05:42:59.318Z,28
2016-08-11T05:43:59.343Z,28
2016-08-11T05:44:59.368Z,28
2016-08-11T05:45:59.386Z,32
2016-08-11T05:46:59.426Z,36
2016-08-11T05:48:00.142Z,36
2016-08-11T05:49:00.160Z,36
2016-08-11T05:50:06.815Z,40
2016-08-11T05:51:00.208Z,32
2016-08-11T05:51:59.529Z,44
2016-08-11T05:52:59.544Z,48
2016-08-11T05:53:59.580Z,56
2016-08-11T05:54:59.591Z,56
2016-08-11T05:55:59.614Z,56
2016-08-11T05:56:59.637Z,56
2016-08-11T05:57:59.656Z,52
2016-08-11T05:59:00.389Z,48
2016-08-11T05:59:59.698Z,40
2016-08-11T06:00:59.725Z,48
2016-08-11T06:01:59.771Z,36
2016-08-11T06:02:59.789Z,36
2016-08-11T06:03:59.791Z,32
2016-08-11T06:04:59.814Z,32
2016-08-11T06:06:00.544Z,32
2016-08-11T06:06:59.860Z,32
2016-08-11T06:08:00.624Z,24
2016-08-11T06:09:00.619Z,24
2016-08-11T06:09:59.935Z,28
2016-08-11T06:10:59.951Z,28
2016-08-11T06:11:59.973Z,36
2016-08-11T06:13:00.000Z,36
2016-08-11T06:14:00.018Z,36
2016-08-11T06:15:00.040Z,32
2016-08-11T06:16:00.074Z,36
2016-08-11T06:17:00.086Z,36
2016-08-11T06:18:00.112Z,36
2016-08-11T06:19:00.144Z,36
2016-08-11T06:20:00.153Z,36
2016-08-11T06:21:00.181Z,40
2016-08-11T06:22:00.198Z,44
2016-08-11T06:23:00.225Z,48
2016-08-11T06:24:00.984Z,60
2016-08-11T06:25:00.283Z,64
2016-08-11T06:26:00.291Z,44
2016-08-11T06:27:00.314Z,48
2016-08-11T06:28:01.754Z,48
2016-08-11T06:29:00.366Z,48
2016-08-11T06:30:00.388Z,48
2016-08-11T06:31:01.121Z,52
2016-08-11T06:32:00.428Z,60
2016-08-11T06:33:00.453Z,84
2016-08-11T06:34:00.472Z,52
2016-08-11T06:35:00.495Z,44
2016-08-11T06:36:00.516Z,48
2016-08-11T06:37:00.541Z,48
2016-08-11T06:38:01.276Z,40
2016-08-11T06:39:02.006Z,40
2016-08-11T06:40:00.627Z,36
2016-08-11T06:41:00.641Z,36
2016-08-11T06:42:01.365Z,28
2016-08-11T06:43:00.681Z,28
2016-08-11T06:44:01.412Z,24
2016-08-11T06:45:00.722Z,20
2016-08-11T06:46:00.750Z,20
2016-08-11T06:47:00.772Z,20
2016-08-11T06:48:01.506Z,24
2016-08-11T06:49:00.823Z,24
2016-08-11T06:50:00.848Z,24
2016-08-11T06:51:02.533Z,24
2016-08-11T06:52:00.896Z,24
2016-08-11T06:53:01.636Z,28
2016-08-11T06:54:01.649Z,28
2016-08-11T06:55:00.971Z,28
2016-08-11T06:56:01.694Z,28
2016-08-11T06:57:01.009Z,32
2016-08-11T06:58:01.035Z,32
2016-08-11T06:59:02.469Z,36
2016-08-11T07:00:01.783Z,40
2016-08-11T07:01:01.826Z,44
2016-08-11T07:02:01.123Z,44
2016-08-11T07:03:01.150Z,48
2016-08-11T07:04:01.173Z,52
2016-08-11T07:05:01.195Z,68
2016-08-11T07:06:01.221Z,72
2016-08-11T07:07:01.966Z,128
2016-08-11T07:08:01.264Z,108
2016-08-11T07:09:01.997Z,88
2016-08-11T07:10:01.311Z,76
2016-08-11T07:11:01.345Z,76
2016-08-11T07:12:01.363Z,48
2016-08-11T07:13:01.379Z,52
2016-08-11T07:14:02.117Z,52
2016-08-11T07:15:01.426Z,100
2016-08-11T07:16:01.452Z,148
2016-08-11T07:17:01.476Z,156
2016-08-11T07:18:02.214Z,164
2016-08-11T07:19:02.942Z,164
2016-08-11T07:20:01.549Z,168
2016-08-11T07:21:02.998Z,164
2016-08-11T07:22:01.593Z,168
2016-08-11T07:23:01.617Z,168
2016-08-11T07:24:02.355Z,172
2016-08-11T07:25:02.395Z,176
2016-08-11T07:26:01.685Z,172
2016-08-11T07:27:01.714Z,180
2016-08-11T07:28:01.738Z,152
2016-08-11T07:29:01.758Z,76
2016-08-11T07:30:01.781Z,76
2016-08-11T07:31:01.808Z,180
2016-08-11T07:32:03.271Z,188
2016-08-11T07:33:01.857Z,168
2016-08-11T07:34:02.587Z,104
2016-08-11T07:35:02.620Z,176
2016-08-11T07:36:02.651Z,184
2016-08-11T07:37:02.655Z,76
2016-08-11T07:38:01.990Z,92
2016-08-11T07:39:03.421Z,196
2016-08-11T07:40:02.022Z,184
2016-08-11T07:41:02.055Z,172
2016-08-11T07:42:02.077Z,204
2016-08-11T07:43:02.132Z,72
2016-08-11T07:44:02.117Z,140
2016-08-11T07:45:02.858Z,72
2016-08-11T07:46:02.171Z,60
2016-08-11T07:47:02.194Z,52
2016-08-11T07:48:02.927Z,56
2016-08-11T07:49:02.956Z,52
2016-08-11T07:50:02.285Z,48
2016-08-11T07:51:02.998Z,44
2016-08-11T07:52:02.528Z,44
2016-08-11T07:53:02.341Z,40
2016-08-11T07:54:02.363Z,44
2016-08-11T07:55:02.390Z,44
2016-08-11T07:56:02.474Z,44
2016-08-11T07:57:02.437Z,44
2016-08-11T07:58:02.468Z,44
2016-08-11T07:59:02.508Z,44
2016-08-11T08:00:02.587Z,44
2016-08-11T08:01:02.533Z,48
2016-08-11T08:02:02.562Z,48
2016-08-11T08:03:02.583Z,48
2016-08-11T08:04:02.608Z,48
2016-08-11T08:05:02.631Z,48
2016-08-11T08:06:02.654Z,52
2016-08-11T08:07:02.684Z,32
2016-08-11T08:08:02.935Z,32
2016-08-11T08:09:02.738Z,32
2016-08-11T08:10:02.752Z,36
2016-08-11T08:11:02.780Z,36
2016-08-11T08:12:03.512Z,36
2016-08-11T08:13:02.836Z,40
2016-08-11T08:14:04.272Z,40
2016-08-11T08:15:02.885Z,44
2016-08-11T08:16:02.893Z,52
2016-08-11T08:17:02.924Z,344
2016-08-11T08:18:03.656Z,316
2016-08-11T08:19:02.981Z,304
2016-08-11T08:20:02.993Z,296
2016-08-11T08:21:03.727Z,304
2016-08-11T08:22:03.068Z,304
2016-08-11T08:23:03.779Z,304
2016-08-11T08:24:03.090Z,304
2016-08-11T08:25:03.112Z,284
2016-08-11T08:26:03.854Z,284
2016-08-11T08:27:03.871Z,288
2016-08-11T08:28:03.920Z,284
2016-08-11T08:29:03.211Z,280
2016-08-11T08:30:03.945Z,276
2016-08-11T08:31:03.262Z,292
2016-08-11T08:32:03.286Z,280
2016-08-11T08:33:04.022Z,272
2016-08-11T08:34:03.330Z,124
2016-08-11T08:35:03.363Z,128
2016-08-11T08:36:03.385Z,56
2016-08-11T08:37:03.403Z,56
2016-08-11T08:38:03.437Z,60
2016-08-11T08:39:04.183Z,48
2016-08-11T08:40:03.480Z,40
2016-08-11T08:41:03.506Z,40
2016-08-11T08:42:03.533Z,40
2016-08-11T08:43:03.556Z,36
2016-08-11T08:44:03.581Z,36
2016-08-11T08:45:03.604Z,40
2016-08-11T08:46:03.625Z,40
2016-08-11T08:47:04.360Z,40
2016-08-11T08:48:03.673Z,44
2016-08-11T08:49:03.697Z,48
2016-08-11T08:50:04.432Z,52
2016-08-11T08:51:03.758Z,60
2016-08-11T08:52:03.789Z,232
2016-08-11T08:53:04.503Z,196
2016-08-11T08:54:04.529Z,264
2016-08-11T08:55:03.841Z,292
2016-08-11T08:56:03.872Z,284
2016-08-11T08:57:03.890Z,284
2016-08-11T08:58:04.628Z,284
2016-08-11T08:59:03.941Z,284
2016-08-11T09:00:03.989Z,288
2016-08-11T09:01:03.999Z,292
2016-08-11T09:02:04.015Z,300
2016-08-11T09:03:04.044Z,328
2016-08-11T09:04:04.062Z,96
2016-08-11T09:05:04.087Z,316
2016-08-11T09:06:04.111Z,1216
2016-08-11T09:07:04.850Z,1208
2016-08-11T09:08:04.163Z,1216
2016-08-11T09:09:04.187Z,84
2016-08-11T09:10:04.924Z,68
2016-08-11T09:11:04.236Z,60
2016-08-11T09:12:04.264Z,56
2016-08-11T09:13:04.998Z,64
2016-08-11T09:14:05.016Z,52
2016-08-11T09:15:04.351Z,48
2016-08-11T09:16:04.373Z,48
2016-08-11T09:17:04.385Z,52
2016-08-11T09:18:05.116Z,52
2016-08-11T09:19:04.448Z,52
2016-08-11T09:20:04.459Z,52
2016-08-11T09:21:04.492Z,56
2016-08-11T09:22:04.510Z,52
2016-08-11T09:23:04.535Z,52
2016-08-11T09:24:04.581Z,60
2016-08-11T09:25:04.592Z,68
2016-08-11T09:26:05.319Z,288
2016-08-11T09:27:04.633Z,280
2016-08-11T09:28:04.658Z,284
2016-08-11T09:29:04.685Z,288
2016-08-11T09:30:04.711Z,284
2016-08-11T09:31:04.733Z,264
2016-08-11T09:32:05.472Z,276
2016-08-11T09:33:04.803Z,220
2016-08-11T09:34:04.825Z,128
2016-08-11T09:35:04.833Z,288
2016-08-11T09:36:04.858Z,288
2016-08-11T09:37:04.885Z,144
2016-08-11T09:38:05.624Z,112
2016-08-11T09:39:04.937Z,88
2016-08-11T09:40:04.961Z,72
2016-08-11T09:41:04.996Z,72
2016-08-11T09:42:06.433Z,68
2016-08-11T09:43:05.051Z,68
2016-08-11T09:44:05.767Z,72
2016-08-11T09:45:05.795Z,68
2016-08-11T09:46:05.131Z,72
2016-08-11T09:47:05.142Z,72
2016-08-11T09:48:05.181Z,88
2016-08-11T09:49:05.200Z,284
2016-08-11T09:50:05.211Z,116
2016-08-11T09:51:05.248Z,92
2016-08-11T09:52:05.269Z,88
2016-08-11T09:53:05.288Z,104
2016-08-11T09:54:06.024Z,68
2016-08-11T09:55:06.084Z,56
2016-08-11T09:56:06.089Z,56
2016-08-11T09:57:05.404Z,52
2016-08-11T09:58:05.419Z,56
2016-08-11T09:59:05.451Z,52
2016-08-11T10:00:06.176Z,52
2016-08-11T10:01:06.210Z,64
2016-08-11T10:02:05.517Z,56
2016-08-11T10:03:05.544Z,64
2016-08-11T10:04:05.583Z,68
2016-08-11T10:05:05.600Z,88
2016-08-11T10:06:05.615Z,100
2016-08-11T10:07:06.354Z,76
2016-08-11T10:08:05.669Z,72
2016-08-11T10:09:06.404Z,72
2016-08-11T10:10:05.718Z,68
2016-08-11T10:11:05.744Z,208
2016-08-11T10:12:05.776Z,264
2016-08-11T10:13:05.817Z,260
2016-08-11T10:14:05.819Z,256
2016-08-11T10:15:05.848Z,248
2016-08-11T10:16:05.877Z,252
2016-08-11T10:17:06.632Z,236
2016-08-11T10:18:05.937Z,240
2016-08-11T10:19:06.673Z,256
2016-08-11T10:20:06.684Z,244
2016-08-11T10:21:06.009Z,252
2016-08-11T10:22:06.026Z,248
2016-08-11T10:23:06.051Z,260
2016-08-11T10:24:06.086Z,260
2016-08-11T10:25:06.104Z,272
2016-08-11T10:26:06.151Z,276
2016-08-11T10:27:06.162Z,300
2016-08-11T10:28:06.192Z,324
2016-08-11T10:29:06.208Z,404
2016-08-11T10:30:06.233Z,324
2016-08-11T10:31:06.262Z,328
2016-08-11T10:32:06.285Z,344
2016-08-11T10:33:07.742Z,348
2016-08-11T10:34:07.052Z,268
2016-08-11T10:35:07.107Z,264
2016-08-11T10:36:07.110Z,256
2016-08-11T10:37:06.424Z,260
2016-08-11T10:38:06.454Z,96
2016-08-11T10:39:06.472Z,100
2016-08-11T10:40:06.499Z,272
2016-08-11T10:41:06.525Z,156
2016-08-11T10:42:06.551Z,272
2016-08-11T10:43:06.595Z,264
2016-08-11T10:44:06.609Z,256
2016-08-11T10:45:06.637Z,264
2016-08-11T10:46:06.679Z,260
2016-08-11T10:47:06.682Z,264
2016-08-11T10:48:06.714Z,176
2016-08-11T10:49:07.450Z,56
2016-08-11T10:50:07.479Z,56
2016-08-11T10:51:08.266Z,56
2016-08-11T10:52:06.842Z,60
2016-08-11T10:53:06.847Z,64
2016-08-11T10:54:06.877Z,72
2016-08-11T10:55:06.901Z,88
2016-08-11T10:56:06.926Z,84
2016-08-11T10:57:06.962Z,220
2016-08-11T10:58:06.985Z,144
2016-08-11T10:59:07.028Z,84
2016-08-11T11:00:07.748Z,68
2016-08-11T11:01:07.063Z,64
2016-08-11T11:02:07.801Z,60
2016-08-11T11:03:07.119Z,52
2016-08-11T11:04:07.146Z,52
2016-08-11T11:05:07.290Z,60
2016-08-11T11:06:07.201Z,52
2016-08-11T11:07:07.248Z,52
2016-08-11T11:08:07.261Z,56
2016-08-11T11:09:07.278Z,56
2016-08-11T11:10:07.310Z,56
2016-08-11T11:11:08.044Z,220
2016-08-11T11:12:07.364Z,224
2016-08-11T11:13:07.393Z,232
2016-08-11T11:14:07.408Z,232
2016-08-11T11:15:07.441Z,232
2016-08-11T11:16:07.473Z,224
2016-08-11T11:17:07.494Z,220
2016-08-11T11:18:07.530Z,228
2016-08-11T11:19:07.541Z,228
2016-08-11T11:20:07.573Z,232
2016-08-11T11:21:07.606Z,188
2016-08-11T11:22:07.627Z,176
2016-08-11T11:23:07.654Z,236
2016-08-11T11:24:09.102Z,212
2016-08-11T11:25:07.711Z,72
2016-08-11T11:26:07.732Z,76
2016-08-11T11:27:07.759Z,224
2016-08-11T11:28:08.495Z,232
2016-08-11T11:29:07.821Z,236
2016-08-11T11:30:07.848Z,220
2016-08-11T11:31:07.876Z,76
2016-08-11T11:32:08.604Z,68
2016-08-11T11:33:07.928Z,72
2016-08-11T11:34:08.150Z,72
2016-08-11T11:35:07.986Z,232
2016-08-11T11:36:07.999Z,232
2016-08-11T11:37:08.736Z,236
2016-08-11T11:38:08.765Z,224
2016-08-11T11:39:08.794Z,228
2016-08-11T11:40:08.835Z,96
2016-08-11T11:41:08.144Z,144
2016-08-11T11:42:08.161Z,188
2016-08-11T11:43:08.195Z,84
2016-08-11T11:44:09.527Z,96
2016-08-11T11:45:08.250Z,72
2016-08-11T11:46:08.270Z,88
2016-08-11T11:47:08.298Z,68
2016-08-11T11:48:08.342Z,64
2016-08-11T11:49:08.367Z,68
2016-08-11T11:50:08.375Z,64
2016-08-11T11:51:08.407Z,68
2016-08-11T11:52:09.882Z,68
2016-08-11T11:53:08.463Z,64
2016-08-11T11:54:08.483Z,200
2016-08-11T11:55:09.221Z,192
2016-08-11T11:56:09.256Z,72
2016-08-11T11:57:08.581Z,140
2016-08-11T11:58:08.592Z,212
2016-08-11T11:59:08.623Z,208
2016-08-11T12:00:08.644Z,204
2016-08-11T12:01:08.673Z,208
2016-08-11T12:02:09.559Z,80
2016-08-11T12:03:09.436Z,68
2016-08-11T12:04:09.461Z,60
2016-08-11T12:05:08.797Z,60
2016-08-11T12:06:08.805Z,60
2016-08-11T12:07:08.848Z,60
2016-08-11T12:08:08.867Z,60
2016-08-11T12:09:08.885Z,60
2016-08-11T12:10:08.914Z,64
2016-08-11T12:11:09.654Z,60
2016-08-11T12:12:08.975Z,56
2016-08-11T12:13:09.015Z,56
2016-08-11T12:14:09.035Z,52
2016-08-11T12:15:09.056Z,52
2016-08-11T12:16:09.793Z,48
2016-08-11T12:17:09.095Z,52
2016-08-11T12:18:09.129Z,48
2016-08-11T12:19:09.872Z,48
2016-08-11T12:20:09.185Z,48
2016-08-11T12:21:09.936Z,52
2016-08-11T12:22:09.237Z,52
2016-08-11T12:23:09.261Z,60
2016-08-11T12:24:09.312Z,60
2016-08-11T12:25:09.323Z,64
2016-08-11T12:26:09.352Z,68
2016-08-11T12:27:09.365Z,80
2016-08-11T12:28:09.392Z,216
2016-08-11T12:29:10.137Z,92
2016-08-11T12:30:10.159Z,96
2016-08-11T12:31:09.483Z,128
2016-08-11T12:32:09.500Z,108
2016-08-11T12:33:09.530Z,212
2016-08-11T12:34:09.557Z,200
2016-08-11T12:35:09.583Z,200
2016-08-11T12:36:09.608Z,200
2016-08-11T12:37:11.052Z,192
2016-08-11T12:38:09.661Z,192
2016-08-11T12:39:09.688Z,188
2016-08-11T12:40:09.717Z,188
2016-08-11T12:41:10.462Z,188
2016-08-11T12:42:10.486Z,188
2016-08-11T12:43:10.502Z,188
2016-08-11T12:44:09.828Z,188
2016-08-11T12:45:09.856Z,184
2016-08-11T12:46:09.873Z,188
2016-08-11T12:47:10.613Z,192
2016-08-11T12:48:09.930Z,188
2016-08-11T12:49:09.966Z,188
2016-08-11T12:50:10.006Z,196
2016-08-11T12:51:10.019Z,192
2016-08-11T12:52:10.033Z,184
2016-08-11T12:53:10.071Z,160
2016-08-11T12:54:10.090Z,140
2016-08-11T12:55:10.131Z,84
2016-08-11T12:56:10.148Z,72
2016-08-11T12:57:10.186Z,60
2016-08-11T12:58:10.224Z,60
2016-08-11T12:59:10.234Z,64
2016-08-11T13:00:10.965Z,56
2016-08-11T13:01:10.998Z,52
2016-08-11T13:02:10.311Z,52
2016-08-11T13:03:10.345Z,56
2016-08-11T13:04:10.364Z,52
2016-08-11T13:05:10.400Z,52
2016-08-11T13:06:10.430Z,52
2016-08-11T13:07:10.444Z,56
2016-08-11T13:08:10.481Z,56
2016-08-11T13:09:10.517Z,56
2016-08-11T13:10:10.525Z,52
2016-08-11T13:11:10.562Z,56
2016-08-11T13:12:10.584Z,60
2016-08-11T13:13:11.327Z,64
2016-08-11T13:14:10.644Z,112
2016-08-11T13:15:10.696Z,184
2016-08-11T13:16:10.692Z,176
2016-08-11T13:17:10.719Z,180
2016-08-11T13:18:10.743Z,136
2016-08-11T13:19:11.486Z,156
2016-08-11T13:20:11.514Z,76
2016-08-11T13:21:11.543Z,68
2016-08-11T13:22:10.861Z,72
2016-08-11T13:23:10.880Z,76
2016-08-11T13:24:11.626Z,168
2016-08-11T13:25:11.648Z,164
2016-08-11T13:26:10.965Z,160
2016-08-11T13:27:10.996Z,156
2016-08-11T13:28:11.017Z,156
2016-08-11T13:29:11.053Z,88
2016-08-11T13:30:11.077Z,112
2016-08-11T13:31:11.807Z,116
2016-08-11T13:32:11.127Z,152
2016-08-11T13:33:11.150Z,152
2016-08-11T13:34:11.181Z,152
2016-08-11T13:35:11.214Z,148
2016-08-11T13:36:11.232Z,152
2016-08-11T13:37:11.276Z,152
2016-08-11T13:38:11.299Z,152
2016-08-11T13:39:11.313Z,148
2016-08-11T13:40:11.349Z,148
2016-08-11T13:41:11.366Z,148
2016-08-11T13:42:11.396Z,144
2016-08-11T13:43:11.423Z,144
2016-08-11T13:44:11.451Z,140
2016-08-11T13:45:11.481Z,140
2016-08-11T13:46:11.508Z,140
2016-08-11T13:47:12.240Z,144
2016-08-11T13:48:11.559Z,140
2016-08-11T13:49:11.590Z,140
2016-08-11T13:50:11.618Z,72
2016-08-11T13:51:11.644Z,108
2016-08-11T13:52:12.557Z,108
2016-08-11T13:53:11.707Z,116
2016-08-11T13:54:12.441Z,68
2016-08-11T13:55:11.755Z,120
2016-08-11T13:56:12.513Z,112
2016-08-11T13:57:11.811Z,80
2016-08-11T13:58:11.856Z,80
2016-08-11T13:59:11.862Z,76
2016-08-11T14:00:12.627Z,96
2016-08-11T14:01:12.636Z,72
2016-08-11T14:02:11.949Z,80
2016-08-11T14:03:11.976Z,112
2016-08-11T14:04:12.005Z,136
2016-08-11T14:05:12.051Z,136
2016-08-11T14:06:12.060Z,128
2016-08-11T14:07:12.084Z,124
2016-08-11T14:08:12.114Z,124
2016-08-11T14:09:12.143Z,116
2016-08-11T14:10:12.168Z,116
2016-08-11T14:11:12.907Z,116
2016-08-11T14:12:12.251Z,64
2016-08-11T14:13:12.270Z,40
2016-08-11T14:14:12.283Z,92
2016-08-11T14:15:12.306Z,64
2016-08-11T14:16:13.075Z,108
2016-08-11T14:17:12.365Z,116
2016-08-11T14:18:13.109Z,112
2016-08-11T14:19:13.147Z,112
2016-08-11T14:20:12.468Z,112
2016-08-11T14:21:13.181Z,112
2016-08-11T14:22:12.501Z,112
2016-08-11T14:23:12.530Z,116
2016-08-11T14:24:12.556Z,112
2016-08-11T14:25:12.587Z,116
2016-08-11T14:26:12.607Z,112
2016-08-11T14:27:14.055Z,112
2016-08-11T14:28:13.376Z,112
2016-08-11T14:29:12.702Z,112